createdAt,value
2018-02-05T00:00:31.571Z,80.64
2018-02-05T00:01:31.436Z,81.21
2018-02-05T00:02:31.298Z,80.17
2018-02-05T00:03:31.166Z,79.22
2018-02-05T00:04:31.032Z,80.92
2018-02-05T00:05:30.893Z,81.87
2018-02-05T00:06:30.759Z,82.06
2018-02-05T00:07:30.624Z,82.06
2018-02-05T00:08:30.492Z,82.43
2018-02-05T00:09:30.353Z,81.58
2018-02-05T00:10:30.216Z,81.02
2018-02-05T00:11:30.079Z,80.54
2018-02-05T00:12:29.999Z,80.54
2018-02-05T00:13:29.809Z,79.98
2018-02-05T00:14:29.672Z,80.64
2018-02-05T00:15:29.536Z,81.21
2018-02-05T00:16:29.400Z,81.77
2018-02-05T00:17:29.266Z,81.21
2018-02-05T00:18:29.130Z,81.11
2018-02-05T00:19:28.994Z,81.77
2018-02-05T00:20:28.863Z,81.77
2018-02-05T00:21:28.724Z,80.64
2018-02-05T00:22:28.587Z,80.26
2018-02-05T00:23:28.454Z,81.02
2018-02-05T00:24:28.318Z,81.30
2018-02-05T00:25:28.180Z,81.21
2018-02-05T00:26:28.046Z,80.17
2018-02-05T00:27:27.912Z,79.22
2018-02-05T00:28:27.778Z,79.32
2018-02-05T00:29:27.648Z,79.41
2018-02-05T00:30:27.505Z,80.26
2018-02-05T00:31:27.371Z,82.24
2018-02-05T00:32:27.237Z,83.09
2018-02-05T00:33:27.101Z,84.13
2018-02-05T00:34:26.966Z,84.32
2018-02-05T00:35:26.830Z,84.69
2018-02-05T00:36:26.695Z,84.03
2018-02-05T00:37:26.561Z,83.94
2018-02-05T00:38:26.426Z,83.37
2018-02-05T00:39:26.291Z,83.09
2018-02-05T00:40:26.155Z,82.43
2018-02-05T00:41:26.022Z,83.28
2018-02-05T00:42:25.884Z,82.43
2018-02-05T00:43:25.768Z,83.18
2018-02-05T00:44:25.616Z,83.56
2018-02-05T00:45:25.482Z,83.84
2018-02-05T00:46:25.349Z,84.41
2018-02-05T00:47:25.212Z,83.84
2018-02-05T00:48:25.077Z,84.60
2018-02-05T00:49:24.941Z,82.90
2018-02-05T00:50:24.809Z,82.15
2018-02-05T00:51:24.675Z,81.58
2018-02-05T00:52:24.540Z,80.54
2018-02-05T00:53:24.407Z,79.22
2018-02-05T00:54:24.268Z,78.85
2018-02-05T00:55:24.136Z,79.03
2018-02-05T00:56:24.002Z,79.22
2018-02-05T00:57:23.866Z,80.54
2018-02-05T00:58:23.729Z,81.40
2018-02-05T00:59:23.599Z,81.58
2018-02-05T01:00:23.461Z,81.40
2018-02-05T01:01:23.329Z,81.96
2018-02-05T01:02:23.190Z,82.34
2018-02-05T01:03:23.058Z,83.00
2018-02-05T01:04:22.922Z,83.94
2018-02-05T01:05:22.788Z,84.22
2018-02-05T01:06:22.654Z,85.07
2018-02-05T01:07:22.518Z,83.84
2018-02-05T01:08:22.385Z,83.56
2018-02-05T01:09:22.249Z,83.00
2018-02-05T01:10:22.114Z,81.68
2018-02-05T01:11:21.980Z,81.58
2018-02-05T01:12:21.842Z,81.58
2018-02-05T01:13:21.712Z,81.77
2018-02-05T01:14:21.574Z,81.68
2018-02-05T01:15:21.441Z,81.58
2018-02-05T01:16:21.307Z,82.34
2018-02-05T01:17:21.171Z,83.37
2018-02-05T01:18:21.034Z,84.41
2018-02-05T01:19:20.903Z,85.26
2018-02-05T01:20:20.771Z,85.07
2018-02-05T01:21:20.642Z,85.36
2018-02-05T01:22:20.503Z,83.94
2018-02-05T01:23:20.366Z,84.22
2018-02-05T01:24:20.228Z,84.98
2018-02-05T01:25:20.092Z,84.88
2018-02-05T01:26:19.957Z,84.32
2018-02-05T01:27:19.824Z,84.79
2018-02-05T01:28:19.689Z,84.88
2018-02-05T01:29:19.551Z,84.41
2018-02-05T01:30:19.420Z,82.62
2018-02-05T01:31:19.285Z,83.18
2018-02-05T01:32:19.149Z,82.62
2018-02-05T01:33:19.012Z,81.40
2018-02-05T01:34:18.880Z,81.58
2018-02-05T01:35:18.744Z,81.40
2018-02-05T01:36:18.609Z,81.58
2018-02-05T01:37:18.473Z,81.58
2018-02-05T01:38:18.337Z,81.87
2018-02-05T01:39:18.202Z,81.77
2018-02-05T01:40:18.068Z,81.68
2018-02-05T01:41:17.932Z,81.58
2018-02-05T01:42:17.797Z,80.73
2018-02-05T01:43:17.660Z,81.68
2018-02-05T01:44:17.526Z,83.09
2018-02-05T01:45:17.392Z,84.32
2018-02-05T01:46:17.256Z,85.07
2018-02-05T01:47:17.126Z,81.96
2018-02-05T01:48:16.986Z,81.58
2018-02-05T01:49:16.851Z,83.28
2018-02-05T01:50:16.718Z,83.47
2018-02-05T01:51:16.583Z,83.84
2018-02-05T01:52:16.444Z,82.71
2018-02-05T01:53:16.314Z,82.90
2018-02-05T01:54:16.177Z,80.73
2018-02-05T01:55:16.043Z,81.40
2018-02-05T01:56:15.906Z,83.18
2018-02-05T01:57:15.771Z,83.28
2018-02-05T01:58:15.637Z,82.53
2018-02-05T01:59:15.502Z,81.30
2018-02-05T02:00:15.368Z,81.68
2018-02-05T02:01:15.231Z,81.11
2018-02-05T02:02:15.098Z,80.64
2018-02-05T02:03:14.963Z,81.21
2018-02-05T02:04:14.829Z,81.21
2018-02-05T02:05:14.696Z,80.36
2018-02-05T02:06:14.557Z,81.02
2018-02-05T02:07:14.424Z,80.54
2018-02-05T02:08:14.289Z,78.56
2018-02-05T02:09:14.156Z,79.32
2018-02-05T02:10:14.019Z,78.56
2018-02-05T02:11:13.880Z,78.85
2018-02-05T02:12:13.744Z,78.28
2018-02-05T02:13:13.613Z,79.50
2018-02-05T02:14:13.476Z,81.58
2018-02-05T02:15:13.341Z,81.96
2018-02-05T02:16:13.205Z,81.58
2018-02-05T02:17:13.069Z,80.54
2018-02-05T02:18:12.942Z,79.32
2018-02-05T02:19:12.802Z,78.47
2018-02-05T02:20:12.666Z,78.38
2018-02-05T02:21:12.576Z,78.47
2018-02-05T02:22:12.393Z,78.94
2018-02-05T02:23:12.260Z,80.36
2018-02-05T02:24:12.122Z,80.54
2018-02-05T02:25:11.988Z,79.03
2018-02-05T02:26:11.853Z,78.19
2018-02-05T02:27:11.719Z,79.32
2018-02-05T02:28:11.582Z,80.07
2018-02-05T02:29:11.447Z,79.69
2018-02-05T02:30:11.313Z,79.22
2018-02-05T02:31:11.177Z,79.88
2018-02-05T02:32:11.041Z,80.36
2018-02-05T02:33:10.907Z,80.45
2018-02-05T02:34:10.785Z,81.02
2018-02-05T02:35:10.634Z,81.40
2018-02-05T02:36:10.502Z,81.58
2018-02-05T02:37:10.365Z,81.40
2018-02-05T02:38:10.229Z,82.81
2018-02-05T02:39:10.094Z,83.75
2018-02-05T02:40:09.958Z,83.84
2018-02-05T02:41:09.821Z,83.84
2018-02-05T02:42:09.685Z,83.75
2018-02-05T02:43:09.548Z,83.28
2018-02-05T02:44:09.417Z,81.96
2018-02-05T02:45:09.279Z,81.49
2018-02-05T02:46:09.144Z,81.96
2018-02-05T02:47:09.005Z,83.65
2018-02-05T02:48:08.872Z,84.13
2018-02-05T02:49:08.736Z,83.84
2018-02-05T02:50:08.599Z,82.81
2018-02-05T02:51:08.467Z,81.40
2018-02-05T02:52:08.330Z,80.17
2018-02-05T02:53:08.196Z,80.26
2018-02-05T02:54:08.061Z,81.30
2018-02-05T02:55:07.926Z,81.49
2018-02-05T02:56:07.789Z,81.30
2018-02-05T02:57:07.652Z,83.00
2018-02-05T02:58:07.524Z,83.94
2018-02-05T02:59:07.387Z,85.17
2018-02-05T03:00:07.248Z,84.88
2018-02-05T03:01:07.113Z,84.13
2018-02-05T03:02:06.981Z,83.18
2018-02-05T03:03:06.845Z,82.81
2018-02-05T03:04:06.706Z,81.68
2018-02-05T03:05:06.570Z,81.68
2018-02-05T03:06:06.438Z,80.92
2018-02-05T03:07:06.303Z,81.21
2018-02-05T03:08:06.166Z,81.40
2018-02-05T03:09:06.034Z,81.77
2018-02-05T03:10:05.897Z,82.06
2018-02-05T03:11:05.762Z,82.06
2018-02-05T03:12:05.626Z,81.49
2018-02-05T03:13:05.491Z,82.06
2018-02-05T03:14:05.358Z,82.24
2018-02-05T03:15:05.221Z,80.26
2018-02-05T03:16:05.086Z,78.00
2018-02-05T03:17:04.952Z,76.77
2018-02-05T03:18:04.818Z,76.77
2018-02-05T03:19:04.684Z,78.09
2018-02-05T03:20:04.548Z,79.13
2018-02-05T03:21:04.410Z,80.36
2018-02-05T03:22:04.276Z,80.54
2018-02-05T03:23:04.143Z,80.26
2018-02-05T03:24:04.006Z,79.32
2018-02-05T03:25:03.871Z,80.64
2018-02-05T03:26:03.735Z,81.58
2018-02-05T03:27:03.600Z,81.40
2018-02-05T03:28:03.466Z,80.54
2018-02-05T03:29:03.329Z,80.54
2018-02-05T03:30:03.200Z,80.54
2018-02-05T03:31:03.058Z,81.21
2018-02-05T03:32:02.923Z,81.58
2018-02-05T03:33:02.789Z,82.53
2018-02-05T03:34:02.655Z,82.62
2018-02-05T03:35:02.516Z,82.62
2018-02-05T03:36:02.382Z,81.40
2018-02-05T03:37:02.247Z,82.06
2018-02-05T03:38:02.114Z,82.53
2018-02-05T03:39:01.978Z,83.18
2018-02-05T03:40:01.837Z,83.94
2018-02-05T03:41:01.705Z,84.32
2018-02-05T03:42:01.567Z,84.13
2018-02-05T03:43:01.433Z,84.03
2018-02-05T03:44:01.298Z,83.47
2018-02-05T03:45:01.161Z,82.90
2018-02-05T03:46:01.027Z,82.62
2018-02-05T03:47:00.890Z,82.62
2018-02-05T03:48:00.755Z,81.40
2018-02-05T03:49:00.620Z,80.45
2018-02-05T03:50:00.486Z,81.11
2018-02-05T03:51:00.357Z,82.34
2018-02-05T03:52:00.214Z,82.24
2018-02-05T03:53:00.087Z,82.43
2018-02-05T03:53:59.943Z,83.65
2018-02-05T03:54:59.812Z,83.37
2018-02-05T03:55:59.672Z,81.68
2018-02-05T03:56:59.539Z,79.88
2018-02-05T03:57:59.404Z,80.07
2018-02-05T03:58:59.267Z,80.45
2018-02-05T03:59:59.131Z,80.92
2018-02-05T04:00:58.996Z,80.68
2018-02-05T04:01:58.861Z,81.81
2018-02-05T04:02:58.728Z,83.18
2018-02-05T04:03:58.589Z,83.37
2018-02-05T04:04:58.454Z,82.06
2018-02-05T04:05:58.320Z,82.19
2018-02-05T04:06:58.185Z,81.40
2018-02-05T04:07:58.051Z,81.77
2018-02-05T04:08:57.915Z,81.87
2018-02-05T04:09:57.779Z,82.15
2018-02-05T04:10:57.646Z,83.47
2018-02-05T04:11:57.508Z,83.00
2018-02-05T04:12:57.376Z,81.87
2018-02-05T04:13:57.240Z,82.81
2018-02-05T04:14:57.104Z,82.90
2018-02-05T04:15:56.970Z,82.62
2018-02-05T04:16:56.833Z,83.00
2018-02-05T04:17:56.704Z,82.53
2018-02-05T04:18:56.566Z,81.77
2018-02-05T04:19:56.429Z,82.15
2018-02-05T04:20:56.295Z,81.87
2018-02-05T04:21:56.159Z,82.06
2018-02-05T04:22:56.027Z,82.34
2018-02-05T04:23:55.896Z,82.06
2018-02-05T04:24:55.755Z,82.43
2018-02-05T04:25:55.621Z,81.40
2018-02-05T04:26:55.487Z,81.21
2018-02-05T04:27:55.351Z,80.54
2018-02-05T04:28:55.216Z,78.75
2018-02-05T04:29:55.082Z,79.55
2018-02-05T04:30:54.949Z,80.45
2018-02-05T04:31:54.810Z,81.11
2018-02-05T04:32:54.677Z,81.68
2018-02-05T04:33:54.544Z,81.58
2018-02-05T04:34:54.406Z,80.73
2018-02-05T04:35:54.272Z,81.30
2018-02-05T04:36:54.139Z,81.30
2018-02-05T04:37:54.004Z,82.24
2018-02-05T04:38:53.867Z,82.62
2018-02-05T04:39:53.734Z,82.62
2018-02-05T04:40:53.597Z,82.24
2018-02-05T04:41:53.463Z,82.06
2018-02-05T04:42:53.327Z,83.18
2018-02-05T04:43:53.192Z,83.00
2018-02-05T04:44:53.057Z,84.03
2018-02-05T04:45:52.925Z,83.84
2018-02-05T04:46:52.787Z,83.47
2018-02-05T04:47:52.652Z,82.81
2018-02-05T04:48:52.516Z,83.14
2018-02-05T04:49:52.382Z,83.98
2018-02-05T04:50:52.248Z,85.11
2018-02-05T04:51:52.113Z,85.40
2018-02-05T04:52:52.084Z,85.49
2018-02-05T04:53:51.843Z,85.21
2018-02-05T04:54:51.709Z,84.36
2018-02-05T04:55:51.572Z,84.27
2018-02-05T04:56:51.436Z,83.51
2018-02-05T04:57:51.302Z,83.51
2018-02-05T04:58:51.166Z,83.65
2018-02-05T04:59:51.032Z,84.08
2018-02-05T05:00:50.898Z,84.22
2018-02-05T05:01:50.762Z,84.27
2018-02-05T05:02:50.627Z,85.02
2018-02-05T05:03:50.492Z,84.74
2018-02-05T05:04:50.356Z,84.83
2018-02-05T05:05:50.225Z,85.02
2018-02-05T05:06:50.090Z,84.92
2018-02-05T05:07:49.954Z,83.98
2018-02-05T05:08:49.818Z,84.32
2018-02-05T05:09:49.685Z,85.02
2018-02-05T05:10:49.549Z,84.36
2018-02-05T05:11:49.414Z,84.83
2018-02-05T05:12:49.280Z,85.21
2018-02-05T05:13:49.145Z,85.40
2018-02-05T05:14:49.009Z,85.40
2018-02-05T05:15:48.877Z,85.21
2018-02-05T05:16:48.741Z,85.59
2018-02-05T05:17:48.607Z,85.21
2018-02-05T05:18:48.472Z,85.21
2018-02-05T05:19:48.338Z,84.51
2018-02-05T05:20:48.201Z,84.36
2018-02-05T05:21:48.067Z,84.41
2018-02-05T05:22:47.935Z,85.11
2018-02-05T05:23:47.798Z,85.40
2018-02-05T05:24:47.665Z,85.17
2018-02-05T05:25:47.532Z,84.13
2018-02-05T05:26:47.396Z,83.47
2018-02-05T05:27:47.267Z,84.13
2018-02-05T05:28:47.134Z,83.56
2018-02-05T05:29:46.991Z,84.22
2018-02-05T05:30:46.861Z,85.07
2018-02-05T05:31:46.726Z,85.83
2018-02-05T05:32:46.589Z,85.54
2018-02-05T05:33:46.455Z,85.73
2018-02-05T05:34:46.349Z,86.11
2018-02-05T05:35:46.184Z,85.36
2018-02-05T05:36:46.050Z,84.98
2018-02-05T05:37:45.914Z,85.36
2018-02-05T05:38:45.790Z,85.83
2018-02-05T05:39:45.649Z,84.22
2018-02-05T05:40:45.519Z,83.94
2018-02-05T05:41:45.379Z,82.71
2018-02-05T05:42:45.369Z,83.00
2018-02-05T05:43:45.114Z,83.47
2018-02-05T05:44:44.987Z,82.66
2018-02-05T05:45:44.840Z,82.47
2018-02-05T05:46:44.705Z,81.77
2018-02-05T05:47:44.570Z,82.62
2018-02-05T05:48:44.438Z,84.03
2018-02-05T05:49:44.305Z,84.27
2018-02-05T05:50:44.170Z,83.47
2018-02-05T05:51:44.033Z,83.51
2018-02-05T05:52:43.898Z,82.38
2018-02-05T05:53:43.766Z,80.11
2018-02-05T05:54:43.629Z,78.89
2018-02-05T05:55:43.494Z,79.27
2018-02-05T05:56:43.402Z,81.43
2018-02-05T05:57:43.236Z,81.43
2018-02-05T05:58:43.089Z,81.34
2018-02-05T05:59:42.956Z,82.76
2018-02-05T06:00:42.822Z,83.04
2018-02-05T06:01:42.690Z,83.14
2018-02-05T06:02:42.550Z,83.70
2018-02-05T06:03:42.416Z,83.98
2018-02-05T06:04:42.282Z,84.64
2018-02-05T06:05:42.146Z,83.70
2018-02-05T06:06:42.011Z,84.45
2018-02-05T06:07:41.875Z,84.74
2018-02-05T06:08:41.743Z,85.11
2018-02-05T06:09:41.605Z,85.11
2018-02-05T06:10:41.473Z,85.11
2018-02-05T06:11:41.336Z,84.74
2018-02-05T06:12:41.201Z,85.40
2018-02-05T06:13:41.068Z,85.02
2018-02-05T06:14:40.932Z,84.64
2018-02-05T06:15:40.798Z,85.30
2018-02-05T06:16:40.661Z,85.68
2018-02-05T06:17:40.528Z,85.87
2018-02-05T06:18:40.394Z,85.59
2018-02-05T06:19:40.259Z,85.49
2018-02-05T06:20:40.125Z,85.30
2018-02-05T06:21:39.989Z,85.11
2018-02-05T06:22:39.854Z,84.92
2018-02-05T06:23:39.720Z,84.92
2018-02-05T06:24:39.583Z,84.60
2018-02-05T06:25:39.455Z,83.47
2018-02-05T06:26:39.318Z,84.08
2018-02-05T06:27:39.263Z,83.80
2018-02-05T06:28:39.051Z,84.22
2018-02-05T06:29:38.910Z,85.07
2018-02-05T06:30:38.780Z,84.83
2018-02-05T06:31:38.640Z,85.21
2018-02-05T06:32:38.504Z,84.45
2018-02-05T06:33:38.372Z,83.37
2018-02-05T06:34:38.238Z,84.22
2018-02-05T06:35:38.099Z,85.02
2018-02-05T06:36:37.967Z,85.30
2018-02-05T06:37:37.864Z,85.40
2018-02-05T06:38:37.694Z,83.80
2018-02-05T06:39:37.559Z,83.61
2018-02-05T06:40:37.424Z,82.66
2018-02-05T06:41:37.293Z,83.70
2018-02-05T06:42:37.158Z,83.61
2018-02-05T06:43:37.021Z,84.36
2018-02-05T06:44:36.884Z,85.21
2018-02-05T06:45:36.749Z,84.92
2018-02-05T06:46:36.616Z,84.45
2018-02-05T06:47:36.483Z,85.02
2018-02-05T06:48:36.346Z,84.64
2018-02-05T06:49:36.212Z,83.47
2018-02-05T06:50:36.074Z,83.89
2018-02-05T06:51:35.940Z,84.45
2018-02-05T06:52:35.804Z,85.21
2018-02-05T06:53:35.670Z,84.55
2018-02-05T06:54:35.536Z,84.45
2018-02-05T06:55:35.402Z,84.17
2018-02-05T06:56:35.267Z,83.98
2018-02-05T06:57:35.134Z,84.45
2018-02-05T06:58:34.998Z,85.21
2018-02-05T07:01:06.315Z,85.02
2018-02-05T07:02:06.131Z,85.02
2018-02-05T07:03:58.773Z,84.64
2018-02-05T07:04:58.628Z,83.51
2018-02-05T07:06:51.315Z,83.42
2018-02-05T07:07:51.131Z,83.98
2018-02-05T07:09:43.773Z,84.08
2018-02-05T07:10:43.628Z,84.17
2018-02-05T07:12:36.303Z,84.92
2018-02-05T07:13:36.130Z,84.74
2018-02-05T07:15:28.772Z,84.45
2018-02-05T07:16:28.629Z,85.11
2018-02-05T07:18:21.311Z,85.02
2018-02-05T07:19:21.126Z,85.68
2018-02-05T07:21:13.770Z,84.83
2018-02-05T07:22:13.626Z,85.21
2018-02-05T07:24:06.313Z,84.64
2018-02-05T07:25:06.127Z,83.70
2018-02-05T07:26:58.772Z,84.08
2018-02-05T07:27:58.632Z,85.02
2018-02-05T07:29:51.301Z,84.74
2018-02-05T07:30:51.133Z,83.80
2018-02-05T07:32:43.805Z,83.89
2018-02-05T07:33:43.647Z,83.89
2018-02-05T07:35:36.278Z,83.14
2018-02-05T07:36:36.132Z,83.14
2018-02-05T07:38:28.822Z,84.17
2018-02-05T07:39:28.633Z,84.08
2018-02-05T07:41:21.280Z,83.04
2018-02-05T07:42:21.134Z,83.04
2018-02-05T07:44:13.828Z,82.14
2018-02-05T07:45:13.637Z,82.38
2018-02-05T07:47:06.289Z,82.80
2018-02-05T07:48:06.147Z,82.32
2018-02-05T07:49:58.821Z,82.23
2018-02-05T07:50:58.646Z,82.70
2018-02-05T07:52:51.295Z,79.30
2018-02-05T07:53:51.150Z,77.80
2018-02-05T07:55:43.833Z,76.00
2018-02-05T07:56:43.651Z,75.81
2018-02-05T07:58:36.298Z,77.23
2018-02-05T07:59:36.155Z,77.23
2018-02-05T08:01:28.851Z,75.53
2018-02-05T08:02:28.665Z,74.87
2018-02-05T08:04:21.314Z,73.74
2018-02-05T08:05:21.172Z,74.11
2018-02-05T08:07:13.858Z,75.90
2018-02-05T08:08:13.675Z,75.81
2018-02-05T08:10:21.426Z,74.02
2018-02-05T08:11:21.255Z,73.55
2018-02-05T08:12:21.120Z,74.11
2018-02-05T08:13:20.986Z,74.21
2018-02-05T08:14:20.863Z,73.93
2018-02-05T08:15:20.719Z,73.93
2018-02-05T08:16:20.588Z,73.93
2018-02-05T08:17:20.454Z,74.77
2018-02-05T08:18:20.321Z,74.77
2018-02-05T08:19:20.188Z,73.93
2018-02-05T08:20:20.053Z,73.36
2018-02-05T08:21:19.920Z,73.36
2018-02-05T08:22:19.787Z,73.26
2018-02-05T08:23:19.654Z,73.36
2018-02-05T08:24:19.518Z,72.98
2018-02-05T08:25:19.388Z,73.98
2018-02-05T08:26:19.255Z,73.98
2018-02-05T08:27:19.121Z,74.87
2018-02-05T08:28:18.993Z,77.61
2018-02-05T08:29:18.854Z,80.25
2018-02-05T08:30:18.722Z,81.20
2018-02-05T08:31:18.589Z,76.95
2018-02-05T08:32:18.459Z,74.49
2018-02-05T08:33:18.322Z,74.11
2018-02-05T08:34:18.190Z,73.36
2018-02-05T08:35:18.057Z,73.83
2018-02-05T08:36:17.926Z,74.40
2018-02-05T08:37:17.788Z,74.21
2018-02-05T08:38:17.655Z,75.30
2018-02-05T08:39:17.523Z,75.34
2018-02-05T08:40:17.388Z,75.62
2018-02-05T08:41:17.253Z,74.77
2018-02-05T08:42:17.125Z,73.17
2018-02-05T08:43:16.992Z,72.41
2018-02-05T08:44:16.855Z,72.22
2018-02-05T08:45:16.721Z,71.56
2018-02-05T08:46:16.588Z,70.05
2018-02-05T08:47:16.461Z,70.09
2018-02-05T08:48:16.320Z,68.95
2018-02-05T08:49:16.245Z,67.72
2018-02-05T08:50:16.058Z,66.12
2018-02-05T08:51:15.925Z,65.49
2018-02-05T08:52:15.794Z,64.17
2018-02-05T08:53:15.661Z,63.64
2018-02-05T08:54:15.528Z,63.26
2018-02-05T08:55:15.395Z,61.08
2018-02-05T08:56:15.263Z,59.79
2018-02-05T08:57:15.134Z,60.45
2018-02-05T08:58:15.003Z,60.17
2018-02-05T08:59:14.873Z,60.77
2018-02-05T09:00:14.740Z,60.19
2018-02-05T09:01:14.610Z,59.16
2018-02-05T09:02:14.481Z,59.38
2018-02-05T09:03:14.354Z,58.62
2018-02-05T09:04:14.222Z,57.10
2018-02-05T09:05:14.093Z,54.45
2018-02-05T09:06:13.964Z,53.78
2018-02-05T09:07:13.833Z,52.56
2018-02-05T09:08:13.702Z,51.96
2018-02-05T09:09:13.576Z,52.72
2018-02-05T09:10:13.447Z,53.38
2018-02-05T09:11:13.324Z,54.23
2018-02-05T09:12:13.190Z,55.53
2018-02-05T09:13:13.061Z,56.20
2018-02-05T09:14:12.979Z,56.76
2018-02-05T09:15:12.805Z,57.01
2018-02-05T09:16:12.675Z,58.62
2018-02-05T09:17:12.545Z,59.00
2018-02-05T09:18:12.418Z,59.95
2018-02-05T09:19:12.287Z,60.23
2018-02-05T09:20:12.155Z,60.80
2018-02-05T09:21:12.028Z,60.99
2018-02-05T09:22:11.903Z,61.08
2018-02-05T09:23:11.769Z,62.21
2018-02-05T09:24:11.638Z,63.64
2018-02-05T09:25:11.508Z,64.86
2018-02-05T09:26:11.378Z,65.53
2018-02-05T09:27:11.250Z,65.59
2018-02-05T09:28:11.122Z,67.38
2018-02-05T09:29:10.988Z,68.04
2018-02-05T09:30:10.864Z,68.71
2018-02-05T09:31:10.729Z,66.19
2018-02-05T09:32:10.598Z,64.01
2018-02-05T09:33:10.467Z,62.97
2018-02-05T09:34:10.338Z,63.16
2018-02-05T09:35:10.209Z,64.58
2018-02-05T09:36:10.078Z,64.48
2018-02-05T09:37:09.948Z,64.67
2018-02-05T09:38:09.815Z,65.24
2018-02-05T09:39:09.687Z,65.59
2018-02-05T09:40:09.556Z,66.53
2018-02-05T09:41:09.426Z,67.10
2018-02-05T09:42:09.295Z,67.47
2018-02-05T09:43:09.170Z,67.76
2018-02-05T09:44:09.034Z,67.66
2018-02-05T09:45:08.903Z,67.51
2018-02-05T09:46:08.774Z,67.51
2018-02-05T09:47:08.641Z,67.70
2018-02-05T09:48:08.512Z,67.03
2018-02-05T09:49:08.384Z,66.56
2018-02-05T09:50:08.252Z,65.81
2018-02-05T09:51:08.119Z,65.43
2018-02-05T09:52:07.988Z,65.53
2018-02-05T09:53:07.904Z,64.67
2018-02-05T09:54:07.784Z,64.39
2018-02-05T09:55:07.597Z,64.29
2018-02-05T09:56:07.469Z,64.77
2018-02-05T09:57:07.337Z,64.11
2018-02-05T09:58:07.208Z,64.11
2018-02-05T09:59:07.075Z,64.01
2018-02-05T10:00:06.946Z,64.64
2018-02-05T10:01:06.817Z,65.30
2018-02-05T10:02:06.686Z,65.78
2018-02-05T10:03:06.556Z,65.62
2018-02-05T10:04:06.427Z,65.78
2018-02-05T10:05:06.295Z,65.68
2018-02-05T10:06:06.167Z,64.83
2018-02-05T10:07:06.035Z,65.02
2018-02-05T10:08:05.910Z,65.21
2018-02-05T10:09:05.774Z,65.87
2018-02-05T10:10:05.644Z,65.68
2018-02-05T10:11:05.514Z,65.59
2018-02-05T10:12:05.383Z,65.59
2018-02-05T10:13:05.253Z,65.78
2018-02-05T10:14:05.122Z,65.49
2018-02-05T10:15:04.991Z,65.24
2018-02-05T10:16:04.859Z,65.30
2018-02-05T10:17:04.731Z,65.11
2018-02-05T10:18:04.602Z,65.49
2018-02-05T10:19:04.468Z,66.06
2018-02-05T10:20:04.338Z,66.06
2018-02-05T10:21:04.208Z,65.40
2018-02-05T10:22:04.077Z,65.30
2018-02-05T10:23:03.948Z,63.89
2018-02-05T10:24:03.813Z,62.94
2018-02-05T10:25:03.684Z,62.94
2018-02-05T10:26:03.554Z,63.60
2018-02-05T10:27:03.422Z,64.73
2018-02-05T10:28:03.291Z,64.73
2018-02-05T10:29:03.159Z,63.42
2018-02-05T10:30:03.029Z,63.73
2018-02-05T10:31:02.898Z,63.54
2018-02-05T10:32:02.766Z,62.88
2018-02-05T10:33:02.634Z,62.88
2018-02-05T10:34:02.509Z,63.64
2018-02-05T10:35:02.376Z,63.64
2018-02-05T10:36:02.245Z,63.54
2018-02-05T10:37:02.114Z,62.78
2018-02-05T10:38:01.984Z,62.12
2018-02-05T10:39:01.855Z,61.55
2018-02-05T10:40:01.723Z,60.14
2018-02-05T10:41:01.593Z,61.18
2018-02-05T10:42:01.461Z,61.83
2018-02-05T10:43:01.348Z,60.52
2018-02-05T10:44:01.201Z,60.04
2018-02-05T10:45:01.071Z,60.23
2018-02-05T10:46:00.939Z,59.95
2018-02-05T10:47:00.813Z,60.52
2018-02-05T10:48:00.683Z,59.38
2018-02-05T10:49:00.549Z,57.33
2018-02-05T10:50:00.423Z,56.29
2018-02-05T10:51:00.290Z,55.34
2018-02-05T10:52:00.158Z,55.15
2018-02-05T10:53:00.034Z,54.11
2018-02-05T10:53:59.901Z,54.14
2018-02-05T10:54:59.771Z,54.23
2018-02-05T10:55:59.640Z,54.14
2018-02-05T10:56:59.511Z,53.76
2018-02-05T10:57:59.380Z,54.42
2018-02-05T10:59:00.992Z,53.28
2018-02-05T10:59:59.122Z,52.15
2018-02-05T11:00:58.989Z,51.49
2018-02-05T11:01:58.863Z,52.81
2018-02-05T11:02:58.739Z,54.45
2018-02-05T11:03:58.607Z,54.45
2018-02-05T11:04:58.476Z,55.11
2018-02-05T11:05:58.346Z,54.64
2018-02-05T11:06:58.220Z,54.35
2018-02-05T11:07:58.091Z,55.02
2018-02-05T11:08:57.966Z,54.74
2018-02-05T11:09:57.836Z,53.44
2018-02-05T11:10:57.706Z,53.06
2018-02-05T11:11:57.576Z,52.87
2018-02-05T11:12:57.449Z,53.44
2018-02-05T11:13:57.321Z,53.15
2018-02-05T11:14:57.197Z,53.08
2018-02-05T11:15:57.065Z,52.23
2018-02-05T11:16:56.936Z,50.71
2018-02-05T11:17:56.809Z,50.78
2018-02-05T11:18:56.682Z,51.16
2018-02-05T11:19:56.553Z,50.78
2018-02-05T11:20:56.427Z,50.66
2018-02-05T11:21:56.298Z,51.61
2018-02-05T11:22:56.170Z,51.80
2018-02-05T11:23:56.045Z,51.14
2018-02-05T11:24:55.915Z,51.61
2018-02-05T11:25:55.787Z,52.08
2018-02-05T11:26:55.660Z,52.94
2018-02-05T11:27:55.530Z,52.75
2018-02-05T11:28:55.402Z,52.08
2018-02-05T11:29:55.282Z,52.27
2018-02-05T11:30:55.153Z,52.18
2018-02-05T11:31:55.024Z,52.27
2018-02-05T11:32:54.891Z,52.18
2018-02-05T11:33:54.763Z,53.03
2018-02-05T11:34:54.637Z,52.56
2018-02-05T11:35:54.505Z,51.80
2018-02-05T11:36:54.379Z,51.14
2018-02-05T11:37:54.251Z,51.23
2018-02-05T11:38:54.124Z,51.26
2018-02-05T11:39:53.993Z,50.69
2018-02-05T11:40:53.866Z,49.36
2018-02-05T11:41:53.742Z,49.27
2018-02-05T11:42:53.612Z,50.02
2018-02-05T11:43:53.483Z,49.84
2018-02-05T11:44:53.357Z,49.48
2018-02-05T11:45:53.228Z,49.84
2018-02-05T11:46:53.101Z,50.97
2018-02-05T11:47:52.973Z,50.15
2018-02-05T11:48:52.845Z,50.43
2018-02-05T11:49:52.719Z,49.84
2018-02-05T11:50:52.590Z,50.21
2018-02-05T11:51:52.467Z,50.99
2018-02-05T11:52:52.335Z,50.52
2018-02-05T11:53:52.208Z,50.81
2018-02-05T11:54:52.083Z,50.90
2018-02-05T11:55:51.952Z,49.60
2018-02-05T11:56:51.825Z,48.84
2018-02-05T11:57:51.699Z,47.99
2018-02-05T11:58:51.572Z,46.75
2018-02-05T11:59:51.444Z,46.92
2018-02-05T12:00:51.316Z,47.20
2018-02-05T12:01:51.194Z,47.71
2018-02-05T12:02:51.063Z,48.46
2018-02-05T12:03:50.935Z,47.32
2018-02-05T12:04:50.808Z,46.56
2018-02-05T12:05:50.689Z,46.47
2018-02-05T12:06:50.554Z,46.85
2018-02-05T12:07:50.426Z,47.32
2018-02-05T12:08:50.314Z,47.23
2018-02-05T12:09:50.188Z,47.61
2018-02-05T12:10:50.045Z,47.13
2018-02-05T12:11:49.919Z,46.66
2018-02-05T12:12:49.793Z,46.19
2018-02-05T12:13:49.666Z,47.13
2018-02-05T12:14:49.540Z,47.80
2018-02-05T12:15:49.414Z,48.27
2018-02-05T12:16:49.288Z,46.85
2018-02-05T12:17:49.161Z,47.02
2018-02-05T12:18:49.032Z,48.82
2018-02-05T12:19:48.905Z,50.62
2018-02-05T12:20:48.778Z,50.15
2018-02-05T12:21:48.653Z,50.05
2018-02-05T12:22:48.574Z,50.55
2018-02-05T12:23:48.399Z,49.95
2018-02-05T12:24:48.272Z,50.26
2018-02-05T12:25:48.146Z,49.57
2018-02-05T12:26:48.018Z,49.57
2018-02-05T12:27:47.892Z,49.57
2018-02-05T12:28:47.765Z,49.67
2018-02-05T12:29:47.637Z,49.76
2018-02-05T12:30:47.511Z,49.57
2018-02-05T12:31:47.390Z,49.84
2018-02-05T12:32:47.256Z,51.09
2018-02-05T12:33:47.131Z,50.97
2018-02-05T12:34:47.002Z,51.92
2018-02-05T12:35:46.875Z,51.54
2018-02-05T12:36:46.748Z,52.42
2018-02-05T12:37:46.621Z,52.04
2018-02-05T12:38:46.495Z,51.47
2018-02-05T12:39:46.366Z,51.57
2018-02-05T12:40:46.239Z,51.37
2018-02-05T12:41:46.110Z,50.52
2018-02-05T12:42:45.984Z,50.97
2018-02-05T12:43:45.858Z,51.45
2018-02-05T12:44:45.733Z,52.29
2018-02-05T12:45:45.600Z,52.58
2018-02-05T12:46:45.475Z,51.73
2018-02-05T12:47:45.346Z,52.20
2018-02-05T12:48:45.217Z,52.96
2018-02-05T12:49:45.092Z,53.56
2018-02-05T12:50:44.964Z,53.46
2018-02-05T12:51:44.837Z,51.78
2018-02-05T12:52:44.709Z,51.50
2018-02-05T12:53:44.581Z,51.09
2018-02-05T12:54:44.452Z,51.18
2018-02-05T12:55:44.343Z,51.37
2018-02-05T12:56:44.197Z,51.18
2018-02-05T12:57:44.071Z,51.47
2018-02-05T12:58:43.944Z,51.47
2018-02-05T12:59:43.816Z,51.28
2018-02-05T13:00:43.688Z,51.37
2018-02-05T13:01:43.561Z,51.28
2018-02-05T13:02:43.431Z,51.18
2018-02-05T13:03:43.305Z,51.85
2018-02-05T13:04:43.174Z,51.97
2018-02-05T13:05:43.047Z,51.40
2018-02-05T13:06:42.923Z,51.31
2018-02-05T13:07:42.792Z,50.17
2018-02-05T13:08:42.664Z,48.58
2018-02-05T13:09:42.539Z,48.96
2018-02-05T13:10:42.411Z,48.58
2018-02-05T13:11:42.281Z,48.86
2018-02-05T13:12:42.156Z,49.63
2018-02-05T13:13:42.034Z,49.60